Time;durP1;ratioP1;P1;durP2;ratioP2;P2;SDS_P1;SDS_P2;PMS_P1;PMS_P2;Temp;Humidity;BMP_temperature;BMP_pressure;BME280_temperature;BME280_humidity;BME280_pressure;Samples;Min_cycle;Max_cycle;Signal;HPM_P1;HPM_P2
2021/04/08 00:02:06;;;;;;;12.38;3.05;;;2.50;90.00;;;;;;5051282;28;20449;-79
2021/04/08 00:04:32;;;;;;;10.82;2.65;;;2.50;90.00;;;;;;5052411;28;20450;-79
2021/04/08 00:06:57;;;;;;;19.33;3.30;;;2.50;90.10;;;;;;5051088;28;20041;-79
2021/04/08 00:09:23;;;;;;;16.48;3.20;;;2.40;90.00;;;;;;5052750;28;20052;-79
2021/04/08 00:11:49;;;;;;;14.35;3.03;;;2.40;90.10;;;;;;5052466;28;20025;-79
2021/04/08 00:14:15;;;;;;;13.73;3.58;;;2.40;90.10;;;;;;5051017;28;20357;-78
2021/04/08 00:16:41;;;;;;;19.70;2.92;;;2.40;90.20;;;;;;5051223;28;20031;-79
2021/04/08 00:19:09;;;;;;;13.18;2.35;;;2.30;90.30;;;;;;5050915;28;20021;-78
2021/04/08 00:21:34;;;;;;;13.95;2.88;;;2.30;90.40;;;;;;5050782;28;20028;-78
2021/04/08 00:24:00;;;;;;;13.57;2.95;;;2.30;90.80;;;;;;5052228;28;20033;-78
2021/04/08 00:26:26;;;;;;;14.23;2.90;;;2.30;90.50;;;;;;5051069;28;20021;-79
2021/04/08 00:28:52;;;;;;;10.15;2.40;;;2.30;90.50;;;;;;5052107;28;20020;-78
2021/04/08 00:31:17;;;;;;;16.50;2.58;;;2.30;90.50;;;;;;5050925;28;20102;-78
2021/04/08 00:33:43;;;;;;;11.10;2.17;;;2.20;90.50;;;;;;5051096;28;20123;-77
2021/04/08 00:36:09;;;;;;;12.57;2.13;;;2.20;90.50;;;;;;5052034;28;20017;-78
2021/04/08 00:38:34;;;;;;;16.80;2.30;;;2.20;90.50;;;;;;5052412;28;20049;-78
2021/04/08 00:41:01;;;;;;;10.00;2.67;;;2.20;90.50;;;;;;5050654;28;20450;-78
2021/04/08 00:43:26;;;;;;;13.00;2.70;;;2.20;90.50;;;;;;5052133;28;20400;-79
2021/04/08 00:45:52;;;;;;;20.75;5.20;;;2.20;90.50;;;;;;5051926;28;20021;-78
2021/04/08 00:48:17;;;;;;;10.95;2.63;;;2.20;90.40;;;;;;5051856;28;20074;-79
2021/04/08 00:50:43;;;;;;;19.65;4.28;;;2.20;90.40;;;;;;5051735;28;20481;-79
2021/04/08 00:53:15;;;;;;;12.57;2.80;;;2.20;90.40;;;;;;5054271;28;20013;-79
2021/04/08 00:55:43;;;;;;;17.63;2.47;;;2.10;90.40;;;;;;5054474;28;20021;-79
2021/04/08 00:58:10;;;;;;;16.98;2.75;;;2.10;90.30;;;;;;5054307;28;20021;-79
2021/04/08 01:00:39;;;;;;;14.43;3.20;;;2.10;90.40;;;;;;5054448;28;20033;-79
2021/04/08 01:03:06;;;;;;;11.43;3.37;;;2.10;90.40;;;;;;5054653;28;20024;-77
2021/04/08 01:05:31;;;;;;;14.27;3.55;;;2.10;90.40;;;;;;5054569;28;20262;-78
2021/04/08 01:07:57;;;;;;;14.95;3.47;;;2.10;90.40;;;;;;5055552;28;20473;-78
2021/04/08 01:10:24;;;;;;;13.32;3.72;;;2.10;90.40;;;;;;5055816;28;20028;-78
2021/04/08 01:13:00;;;;;;;15.75;2.90;;;2.10;90.40;;;;;;5054512;28;20404;-78
2021/04/08 01:15:25;;;;;;;15.25;3.33;;;2.10;90.40;;;;;;5056017;28;20103;-78
2021/04/08 01:18:23;;;;;;;12.30;2.97;;;2.10;90.50;;;;;;5054654;28;20139;-78
2021/04/08 01:21:10;;;;;;;13.07;3.53;;;2.00;90.50;;;;;;5054185;28;20021;-78
2021/04/08 01:23:53;;;;;;;15.50;3.05;;;2.00;90.50;;;;;;5054377;28;20465;-79
2021/04/08 01:26:53;;;;;;;12.98;3.67;;;2.00;90.60;;;;;;5054352;28;20025;-79
2021/04/08 01:29:58;;;;;;;20.27;3.90;;;2.00;90.80;;;;;;5054432;28;20021;-78
2021/04/08 01:32:26;;;;;;;13.55;3.60;;;1.90;90.70;;;;;;5055953;28;20017;-79
2021/04/08 01:34:54;;;;;;;10.50;2.40;;;1.90;90.80;;;;;;5055404;28;20025;-79
2021/04/08 01:37:28;;;;;;;21.38;4.38;;;1.90;90.90;;;;;;5054074;28;20013;-79
2021/04/08 01:39:56;;;;;;;15.50;3.75;;;1.90;90.90;;;;;;5053788;28;20489;-79
2021/04/08 01:42:24;;;;;;;12.30;2.90;;;1.90;90.90;;;;;;5055381;28;20075;-79
2021/04/08 01:44:52;;;;;;;15.05;4.30;;;1.80;90.90;;;;;;5053851;28;20044;-79
2021/04/08 01:47:18;;;;;;;11.55;4.25;;;1.80;91.00;;;;;;5054025;28;20107;-79
2021/04/08 01:49:45;;;;;;;10.65;2.30;;;1.80;91.10;;;;;;5054116;28;20025;-79
2021/04/08 01:52:15;;;;;;;11.40;3.30;;;1.80;91.10;;;;;;5053753;28;20028;-79
2021/04/08 01:54:42;;;;;;;;;;;1.80;91.10;;;;;;5054400;28;20079;-79
2021/04/08 01:57:09;;;;;;;12.63;2.75;;;1.80;91.20;;;;;;5054641;28;20311;-79
2021/04/08 01:59:36;;;;;;;22.42;3.80;;;1.90;91.30;;;;;;5054679;28;20033;-79
2021/04/08 02:02:03;;;;;;;15.13;2.97;;;1.90;91.40;;;;;;5053357;28;20025;-79
2021/04/08 02:04:31;;;;;;;11.88;2.85;;;1.90;91.30;;;;;;5053758;28;20028;-79
2021/04/08 02:06:58;;;;;;;11.80;2.30;;;2.00;91.40;;;;;;5053199;28;20335;-79
2021/04/08 02:09:25;;;;;;;12.43;3.15;;;2.00;91.30;;;;;;5054732;28;20024;-79
2021/04/08 02:11:51;;;;;;;10.90;3.08;;;2.10;91.30;;;;;;5053560;28;20024;-79
2021/04/08 02:14:18;;;;;;;11.95;2.90;;;2.10;91.10;;;;;;5054562;28;20045;-79
2021/04/08 02:16:49;;;;;;;7.88;3.17;;;2.20;91.10;;;;;;5053372;28;20475;-79
2021/04/08 02:19:16;;;;;;;12.00;2.28;;;2.20;90.90;;;;;;5054419;28;20055;-79
2021/04/08 02:21:44;;;;;;;8.43;2.00;;;2.30;90.90;;;;;;5053377;28;20029;-79
2021/04/08 02:24:12;;;;;;;6.53;1.58;;;2.30;90.70;;;;;;5052811;28;20013;-79
2021/04/08 02:26:42;;;;;;;10.70;2.38;;;2.40;90.60;;;;;;5054318;28;20186;-78
2021/04/08 02:29:10;;;;;;;8.40;1.70;;;2.40;90.50;;;;;;5052867;28;20021;-79
2021/04/08 02:31:39;;;;;;;10.02;2.03;;;2.50;90.30;;;;;;5053243;28;20021;-79
2021/04/08 02:34:06;;;;;;;9.20;2.43;;;2.50;90.50;;;;;;5052908;28;20021;-79
2021/04/08 02:36:32;;;;;;;7.15;1.77;;;2.50;90.20;;;;;;5053128;28;20017;-78
2021/04/08 02:38:57;;;;;;;8.32;1.98;;;2.50;90.00;;;;;;5052739;28;20369;-79
2021/04/08 02:41:23;;;;;;;6.82;1.92;;;2.60;89.70;;;;;;5054056;28;20024;-79
2021/04/08 02:43:49;;;;;;;9.90;2.22;;;2.60;89.70;;;;;;5054208;28;20033;-79
2021/04/08 02:46:14;;;;;;;10.35;2.13;;;2.60;89.40;;;;;;5052700;28;20017;-79
2021/04/08 02:48:40;;;;;;;10.35;2.58;;;2.60;89.30;;;;;;5054085;28;20449;-79
2021/04/08 02:51:14;;;;;;;5.72;1.65;;;2.60;89.20;;;;;;5053577;28;20471;-79
2021/04/08 02:53:50;;;;;;;9.88;2.22;;;2.60;89.10;;;;;;5053038;28;20361;-78
2021/04/08 02:56:37;;;;;;;14.32;2.20;;;2.60;89.20;;;;;;5053680;28;20024;-77
2021/04/08 02:59:08;;;;;;;8.90;1.92;;;2.60;89.20;;;;;;5053138;28;20021;-78
2021/04/08 03:01:43;;;;;;;10.70;1.98;;;2.70;89.30;;;;;;5054442;28;20029;-79
2021/04/08 03:04:10;;;;;;;8.02;1.45;;;2.70;89.80;;;;;;5054637;28;20066;-78
2021/04/08 03:06:36;;;;;;;9.50;2.40;;;2.70;89.30;;;;;;5052135;28;20102;-78
2021/04/08 03:09:03;;;;;;;8.10;1.75;;;2.70;89.50;;;;;;5052072;28;20017;-79
2021/04/08 03:11:32;;;;;;;14.07;2.22;;;2.70;89.50;;;;;;5052523;28;20450;-78
2021/04/08 03:14:01;;;;;;;11.20;1.80;;;2.70;89.50;;;;;;5051644;28;20036;-78
2021/04/08 03:16:33;;;;;;;12.07;1.90;;;2.70;89.40;;;;;;5052199;28;20132;-78
2021/04/08 03:19:00;;;;;;;8.93;1.83;;;2.70;89.40;;;;;;5052220;28;20091;-78
2021/04/08 03:21:27;;;;;;;5.97;1.40;;;2.70;89.40;;;;;;5052046;28;20029;-79
2021/04/08 03:23:54;;;;;;;9.93;2.00;;;2.80;89.70;;;;;;5052233;28;20021;-78
2021/04/08 03:26:23;;;;;;;14.27;2.67;;;2.80;89.70;;;;;;5053437;28;20056;-79
2021/04/08 03:28:49;;;;;;;14.45;2.35;;;2.80;89.70;;;;;;5053148;28;20052;-78
2021/04/08 03:31:16;;;;;;;9.23;1.92;;;2.80;89.60;;;;;;5052796;28;20021;-78
2021/04/08 03:33:43;;;;;;;8.98;1.75;;;2.80;89.50;;;;;;5053597;28;20053;-80
2021/04/08 03:36:10;;;;;;;8.57;2.33;;;2.80;89.40;;;;;;5053089;28;20398;-79
2021/04/08 03:38:35;;;;;;;6.70;1.73;;;2.80;89.50;;;;;;5051967;28;20399;-79
2021/04/08 03:41:02;;;;;;;8.25;1.73;;;2.80;89.10;;;;;;5051371;28;20047;-78
2021/04/08 03:43:28;;;;;;;9.93;2.05;;;2.90;89.10;;;;;;5053193;28;20078;-78
2021/04/08 03:45:59;;;;;;;10.52;1.88;;;2.90;89.10;;;;;;5051783;28;20024;-80
2021/04/08 03:48:26;;;;;;;9.57;2.20;;;2.90;89.00;;;;;;5053101;28;20021;-80
2021/04/08 03:50:52;;;;;;;15.77;3.10;;;2.90;88.60;;;;;;5051696;28;20036;-80
2021/04/08 03:53:19;;;;;;;4.57;1.75;;;2.90;88.60;;;;;;5052897;28;20074;-80
2021/04/08 03:55:46;;;;;;;8.75;1.83;;;3.00;88.70;;;;;;5051541;28;20048;-79
2021/04/08 03:58:13;;;;;;;10.85;1.98;;;3.00;88.60;;;;;;5051431;28;20017;-79
2021/04/08 04:00:39;;;;;;;10.13;2.95;;;3.00;88.50;;;;;;5052945;28;20367;-78
2021/04/08 04:03:09;;;;;;;8.32;1.95;;;3.10;88.40;;;;;;5051458;28;20090;-79
2021/04/08 04:05:35;;;;;;;13.23;1.95;;;3.10;88.50;;;;;;5051592;28;20021;-79
2021/04/08 04:08:01;;;;;;;13.18;4.75;;;3.10;88.30;;;;;;5050993;28;20037;-79
2021/04/08 04:10:27;;;;;;;7.15;2.03;;;3.10;88.20;;;;;;5051512;28;20013;-78
2021/04/08 04:12:55;;;;;;;10.80;2.35;;;3.10;88.00;;;;;;5052367;28;20095;-78
2021/04/08 04:15:21;;;;;;;9.73;2.13;;;3.10;87.70;;;;;;5051091;28;20446;-79
2021/04/08 04:17:48;;;;;;;11.15;2.72;;;3.10;87.90;;;;;;5051213;28;20017;-79
2021/04/08 04:20:15;;;;;;;12.40;2.72;;;3.10;88.00;;;;;;5051017;28;20017;-79
2021/04/08 04:22:42;;;;;;;7.65;2.45;;;3.10;88.10;;;;;;5052787;28;20025;-79
2021/04/08 04:25:10;;;;;;;13.05;3.30;;;3.10;88.30;;;;;;5050680;28;20435;-79
2021/04/08 04:27:36;;;;;;;11.70;3.42;;;3.10;88.40;;;;;;5050567;28;20048;-79
2021/04/08 04:30:05;;;;;;;7.85;3.10;;;3.10;88.70;;;;;;5052890;28;20057;-79
2021/04/08 04:32:30;;;;;;;12.27;3.20;;;3.10;88.80;;;;;;5051102;28;20047;-79
2021/04/08 04:34:56;;;;;;;8.35;2.80;;;3.10;88.80;;;;;;5051109;28;20052;-79
2021/04/08 04:37:22;;;;;;;10.23;2.58;;;3.10;88.70;;;;;;5052003;28;20016;-79
2021/04/08 04:39:48;;;;;;;11.63;2.70;;;3.10;88.90;;;;;;5052313;28;20466;-79
2021/04/08 04:42:13;;;;;;;9.68;2.60;;;3.10;88.70;;;;;;5050920;28;20029;-79
2021/04/08 04:44:39;;;;;;;12.07;2.60;;;3.10;88.90;;;;;;5052037;28;20469;-79
2021/04/08 04:47:05;;;;;;;11.73;3.42;;;3.10;88.60;;;;;;5050681;28;20021;-79
2021/04/08 04:49:31;;;;;;;13.25;3.00;;;3.10;88.80;;;;;;5050977;28;20333;-79
2021/04/08 04:51:57;;;;;;;11.45;2.28;;;3.00;88.80;;;;;;5050879;28;20017;-79
2021/04/08 04:54:22;;;;;;;11.57;3.20;;;3.10;88.70;;;;;;5051774;28;20024;-79
2021/04/08 04:56:48;;;;;;;14.60;3.83;;;3.00;88.90;;;;;;5052136;28;20025;-79
2021/04/08 04:59:14;;;;;;;9.68;2.42;;;3.10;89.00;;;;;;5050620;28;20074;-79
2021/04/08 05:01:40;;;;;;;9.52;3.20;;;3.10;88.90;;;;;;5052209;28;20029;-79
2021/04/08 05:04:05;;;;;;;9.95;2.85;;;3.10;88.80;;;;;;5050628;28;20140;-80
2021/04/08 05:06:31;;;;;;;12.63;3.20;;;3.10;88.70;;;;;;5051035;28;20048;-79
2021/04/08 05:08:56;;;;;;;7.25;2.35;;;3.10;88.60;;;;;;5050874;28;20017;-80
2021/04/08 05:11:22;;;;;;;12.77;2.67;;;3.10;89.30;;;;;;5051942;28;20120;-79
2021/04/08 05:13:49;;;;;;;13.93;3.03;;;3.10;88.80;;;;;;5050710;28;20410;-79
2021/04/08 05:16:15;;;;;;;9.20;2.50;;;3.10;89.00;;;;;;5050334;28;20067;-78
2021/04/08 05:18:40;;;;;;;11.05;3.38;;;3.10;88.80;;;;;;5051870;28;20025;-79
2021/04/08 05:21:07;;;;;;;13.70;3.05;;;3.10;88.80;;;;;;5052095;28;20009;-78
2021/04/08 05:23:32;;;;;;;11.75;2.97;;;3.10;88.80;;;;;;5051258;28;20017;-79
2021/04/08 05:25:58;;;;;;;12.73;2.70;;;3.10;88.70;;;;;;5050652;28;20035;-79
2021/04/08 05:28:23;;;;;;;10.13;2.83;;;3.20;88.60;;;;;;5051797;28;20029;-79
2021/04/08 05:30:49;;;;;;;10.77;3.35;;;3.20;88.60;;;;;;5052200;28;20587;-78
2021/04/08 05:33:14;;;;;;;13.27;2.63;;;3.20;88.70;;;;;;5050385;28;20072;-78
2021/04/08 05:35:40;;;;;;;10.88;2.50;;;3.20;88.60;;;;;;5050496;28;20017;-79
2021/04/08 05:38:06;;;;;;;21.80;3.10;;;3.30;88.30;;;;;;5052673;28;20441;-78
2021/04/08 05:40:31;;;;;;;6.72;3.10;;;3.30;88.40;;;;;;5054164;28;20021;-79
2021/04/08 05:42:57;;;;;;;11.07;3.00;;;3.30;88.50;;;;;;5054124;28;20021;-79
2021/04/08 05:45:26;;;;;;;8.13;2.58;;;3.30;88.50;;;;;;5054431;28;20408;-78
2021/04/08 05:47:51;;;;;;;8.13;2.75;;;3.30;88.60;;;;;;5053934;28;20017;-78
2021/04/08 05:50:17;;;;;;;8.35;3.83;;;3.30;88.60;;;;;;5053787;28;20028;-78
2021/04/08 05:52:43;;;;;;;13.52;3.65;;;3.40;88.80;;;;;;5055505;28;20064;-77
2021/04/08 05:55:09;;;;;;;15.02;5.22;;;3.50;88.80;;;;;;5054675;28;20043;-77
2021/04/08 05:57:35;;;;;;;17.55;4.85;;;3.50;88.80;;;;;;5053882;28;20021;-77
2021/04/08 06:00:00;;;;;;;12.02;4.88;;;3.50;88.90;;;;;;5054674;28;20361;-77
2021/04/08 06:02:28;;;;;;;13.73;4.75;;;3.50;89.30;;;;;;5053255;28;20115;-77
2021/04/08 06:04:53;;;;;;;13.63;6.68;;;3.60;88.70;;;;;;5054715;28;20048;-77
2021/04/08 06:07:19;;;;;;;13.80;6.32;;;3.60;88.40;;;;;;5052903;28;20453;-78
2021/04/08 06:09:44;;;;;;;19.45;6.93;;;3.60;88.40;;;;;;5054044;28;20357;-77
2021/04/08 06:12:10;;;;;;;14.98;5.57;;;3.70;88.40;;;;;;5054440;28;20032;-77
2021/04/08 06:14:37;;;;;;;15.32;5.88;;;3.70;88.10;;;;;;5054905;28;20063;-77
2021/04/08 06:17:04;;;;;;;15.13;5.63;;;3.70;88.20;;;;;;5054562;28;20017;-77
2021/04/08 06:19:29;;;;;;;17.23;6.60;;;3.70;88.00;;;;;;5053112;28;20485;-76
2021/04/08 06:21:55;;;;;;;15.90;6.35;;;3.80;88.10;;;;;;5054660;28;20036;-77
2021/04/08 06:24:20;;;;;;;12.48;5.45;;;3.80;87.80;;;;;;5054339;28;20028;-77
2021/04/08 06:26:46;;;;;;;13.10;4.90;;;3.80;87.50;;;;;;5053001;28;20025;-78
2021/04/08 06:29:12;;;;;;;13.23;5.95;;;3.80;87.20;;;;;;5054163;28;20096;-79
2021/04/08 06:31:37;;;;;;;9.43;5.47;;;3.80;87.60;;;;;;5053397;28;20112;-78
2021/04/08 06:34:03;;;;;;;21.38;6.18;;;3.90;87.40;;;;;;5053194;28;20017;-77
2021/04/08 06:36:30;;;;;;;12.30;5.90;;;3.90;87.10;;;;;;5052738;28;20021;-77
2021/04/08 06:38:55;;;;;;;14.70;6.15;;;3.90;86.70;;;;;;5054183;28;20051;-77
2021/04/08 06:41:21;;;;;;;14.20;6.20;;;3.90;86.60;;;;;;5052810;28;20021;-77
2021/04/08 06:43:48;;;;;;;15.73;6.07;;;4.00;86.80;;;;;;5054471;28;20050;-77
2021/04/08 06:46:23;;;;;;;13.18;5.85;;;4.00;85.80;;;;;;5054011;28;20451;-77
2021/04/08 06:49:11;;;;;;;12.43;6.00;;;3.90;85.60;;;;;;5051910;28;20472;-77
2021/04/08 06:51:41;;;;;;;14.05;5.82;;;3.90;85.90;;;;;;5052784;28;20013;-77
2021/04/08 06:54:08;;;;;;;15.50;6.07;;;3.90;85.80;;;;;;5053814;28;20013;-77
2021/04/08 06:56:34;;;;;;;17.35;6.68;;;3.90;85.60;;;;;;5053954;28;20017;-77
2021/04/08 06:59:00;;;;;;;14.80;5.65;;;3.90;85.70;;;;;;5052418;28;20024;-77
2021/04/08 07:01:26;;;;;;;17.10;5.93;;;4.00;85.80;;;;;;5053663;28;20033;-77
2021/04/08 07:03:53;;;;;;;14.77;6.35;;;4.20;85.20;;;;;;5053829;28;20028;-77
2021/04/08 07:06:19;;;;;;;14.23;6.05;;;4.30;84.40;;;;;;5051972;28;20017;-77
2021/04/08 07:08:45;;;;;;;20.35;6.05;;;4.40;83.60;;;;;;5052426;28;20024;-77
2021/04/08 07:11:11;;;;;;;10.43;5.65;;;4.60;83.10;;;;;;5053847;28;20009;-77
2021/04/08 07:13:37;;;;;;;14.30;4.97;;;4.80;82.70;;;;;;5052322;28;20020;-77
2021/04/08 07:16:03;;;;;;;12.63;5.10;;;5.00;81.10;;;;;;5052337;28;20021;-76
2021/04/08 07:18:29;;;;;;;12.85;5.07;;;5.20;78.80;;;;;;5053159;28;20045;-76
2021/04/08 07:20:56;;;;;;;14.45;4.97;;;5.30;79.40;;;;;;5052465;28;20044;-77
2021/04/08 07:23:22;;;;;;;11.13;4.93;;;5.40;78.10;;;;;;5051816;28;20017;-76
2021/04/08 07:26:11;;;;;;;9.35;4.00;;;5.60;77.60;;;;;;5052145;28;20100;-78
2021/04/08 07:28:42;;;;;;;10.43;4.53;;;5.80;75.60;;;;;;5052041;28;20532;-77
2021/04/08 07:31:23;;;;;;;11.65;4.40;;;5.90;74.20;;;;;;5051934;28;20364;-77
2021/04/08 07:33:50;;;;;;;12.02;4.63;;;5.90;73.40;;;;;;5053354;28;20056;-77
2021/04/08 07:36:35;;;;;;;11.38;4.30;;;5.90;74.10;;;;;;5051660;28;20063;-77
2021/04/08 07:39:14;;;;;;;10.23;4.40;;;5.90;72.90;;;;;;5052874;28;20536;-76
2021/04/08 07:41:40;;;;;;;18.40;4.45;;;5.90;73.10;;;;;;5051606;28;20074;-77
2021/04/08 07:44:10;;;;;;;10.55;4.50;;;5.90;73.80;;;;;;5052714;28;20023;-77
2021/04/08 07:46:44;;;;;;;10.88;3.88;;;6.00;74.30;;;;;;5051532;28;20036;-77
2021/04/08 07:49:31;;;;;;;12.77;5.00;;;6.10;72.20;;;;;;5051508;28;20029;-77
2021/04/08 07:51:58;;;;;;;9.80;3.80;;;6.30;71.00;;;;;;5051505;28;20021;-77
2021/04/08 07:54:24;;;;;;;15.63;3.67;;;6.40;69.00;;;;;;5051205;28;20457;-76
2021/04/08 07:56:50;;;;;;;7.15;3.70;;;6.40;68.90;;;;;;5052738;28;20108;-76
2021/04/08 07:59:21;;;;;;;15.45;4.75;;;6.40;67.70;;;;;;5051105;28;20375;-78
2021/04/08 08:01:50;;;;;;;10.10;3.13;;;6.50;66.70;;;;;;5051194;28;20113;-78
2021/04/08 08:04:24;;;;;;;8.43;4.10;;;6.60;67.10;;;;;;5051042;28;20445;-77
2021/04/08 08:06:51;;;;;;;8.38;3.30;;;6.60;67.30;;;;;;5050989;28;20091;-78
2021/04/08 08:09:28;;;;;;;11.70;4.57;;;6.60;66.90;;;;;;5051063;28;20024;-77
2021/04/08 08:11:56;;;;;;;8.77;3.33;;;6.70;65.50;;;;;;5051145;28;20024;-78
2021/04/08 08:14:33;;;;;;;6.43;3.38;;;6.60;64.00;;;;;;5052228;28;20020;-78
2021/04/08 08:17:09;;;;;;;6.72;3.10;;;6.60;64.00;;;;;;5050985;28;20103;-78
2021/04/08 08:19:36;;;;;;;10.60;3.72;;;6.80;64.70;;;;;;5052369;28;20033;-78
2021/04/08 08:22:03;;;;;;;9.30;3.35;;;6.90;62.60;;;;;;5051077;28;20021;-78
2021/04/08 08:24:30;;;;;;;8.85;3.50;;;7.10;63.20;;;;;;5034005;28;20025;-78
2021/04/08 08:26:56;;;;;;;9.13;3.33;;;7.20;62.70;;;;;;5050964;28;20075;-78
2021/04/08 08:29:25;;;;;;;8.13;4.40;;;7.40;61.00;;;;;;5051781;28;20450;-78
2021/04/08 08:32:02;;;;;;;8.38;3.40;;;7.60;60.40;;;;;;5052313;28;20021;-78
2021/04/08 08:34:36;;;;;;;10.65;3.45;;;7.90;61.40;;;;;;5050501;28;20025;-78
2021/04/08 08:37:08;;;;;;;11.50;3.92;;;8.20;60.10;;;;;;5050819;28;20056;-78
2021/04/08 08:39:36;;;;;;;8.77;3.30;;;8.30;57.60;;;;;;5052023;28;20017;-77
2021/04/08 08:42:04;;;;;;;8.00;3.05;;;8.30;57.20;;;;;;5050732;28;20021;-78
2021/04/08 08:44:30;;;;;;;7.47;3.28;;;8.50;59.10;;;;;;5050617;28;20021;-78
2021/04/08 08:47:00;;;;;;;9.82;3.95;;;8.60;55.70;;;;;;5050732;28;20082;-78
2021/04/08 08:49:45;;;;;;;9.00;3.42;;;8.80;54.80;;;;;;5051923;28;20028;-78
2021/04/08 08:52:16;;;;;;;7.75;2.97;;;9.00;54.20;;;;;;5050851;28;20021;-78
2021/04/08 08:54:43;;;;;;;15.75;3.33;;;9.20;52.90;;;;;;5050831;28;20100;-77
2021/04/08 08:57:10;;;;;;;8.45;3.13;;;9.40;51.70;;;;;;5050886;28;20361;-78
2021/04/08 08:59:37;;;;;;;6.25;2.80;;;9.60;50.60;;;;;;5051532;28;20035;-77
2021/04/08 09:02:03;;;;;;;10.50;3.35;;;9.50;50.90;;;;;;5051004;28;20021;-77
2021/04/08 09:04:29;;;;;;;13.18;3.38;;;9.30;52.30;;;;;;5050602;28;20067;-77
2021/04/08 09:06:57;;;;;;;9.38;3.08;;;9.00;51.60;;;;;;5050646;28;20151;-78
2021/04/08 09:09:26;;;;;;;7.75;3.05;;;8.70;51.50;;;;;;5050515;28;20082;-78
2021/04/08 09:11:52;;;;;;;5.57;2.60;;;8.40;53.30;;;;;;5051115;28;20017;-78
2021/04/08 09:14:19;;;;;;;8.20;2.95;;;8.10;50.70;;;;;;5055911;28;20013;-78
2021/04/08 09:16:47;;;;;;;7.95;3.05;;;7.80;52.80;;;;;;5054603;28;20102;-78
2021/04/08 09:19:13;;;;;;;8.27;3.17;;;7.70;52.50;;;;;;5055969;28;20040;-79
2021/04/08 09:21:51;;;;;;;11.27;4.63;;;7.70;52.40;;;;;;5054492;28;20132;-79
2021/04/08 09:24:32;;;;;;;7.13;2.85;;;7.60;52.60;;;;;;5055442;28;20345;-80
2021/04/08 09:26:59;;;;;;;9.50;3.20;;;7.70;51.20;;;;;;5054454;28;20017;-78
2021/04/08 09:29:34;;;;;;;9.70;3.35;;;7.80;51.50;;;;;;5053895;28;20025;-78
2021/04/08 09:32:18;;;;;;;7.55;3.17;;;8.00;53.30;;;;;;5055571;28;20021;-79
2021/04/08 09:37:46;;;;;;;49.03;7.65;;;8.40;59.20;;;;;;5055332;28;20210;-79
2021/04/08 09:40:21;;;;;;;7.60;2.83;;;8.70;49.10;;;;;;5054086;28;20060;-78
2021/04/08 09:42:56;;;;;;;12.10;4.28;;;8.90;55.80;;;;;;5054195;28;20347;-78
2021/04/08 09:45:22;;;;;;;9.65;4.25;;;9.10;47.70;;;;;;5053934;28;20420;-79
2021/04/08 09:48:25;;;;;;;18.02;4.68;;;9.20;48.80;;;;;;5054245;28;20021;-78
2021/04/08 09:50:57;;;;;;;10.63;3.97;;;9.60;49.90;;;;;;5053280;28;20094;-79
2021/04/08 09:53:28;;;;;;;10.23;4.10;;;10.00;46.90;;;;;;5053661;28;20475;-79
2021/04/08 09:55:58;;;;;;;9.25;4.40;;;10.10;43.20;;;;;;5053798;28;20017;-79
2021/04/08 09:58:34;;;;;;;9.15;4.97;;;10.00;45.50;;;;;;5053375;28;20457;-79
2021/04/08 10:01:03;;;;;;;9.93;4.07;;;10.00;45.10;;;;;;5053432;28;20072;-79
2021/04/08 10:03:29;;;;;;;9.13;3.90;;;9.90;44.30;;;;;;5053455;28;20017;-79
2021/04/08 10:05:55;;;;;;;10.63;4.60;;;9.70;44.60;;;;;;5054985;28;20404;-80
2021/04/08 10:08:22;;;;;;;8.85;3.92;;;9.50;45.10;;;;;;5055775;28;20045;-79
2021/04/08 10:10:48;;;;;;;10.50;3.88;;;9.30;45.70;;;;;;5053565;28;20025;-79
2021/04/08 10:13:29;;;;;;;7.68;4.25;;;9.20;43.80;;;;;;5053626;28;20463;-79
2021/04/08 10:15:59;;;;;;;10.73;4.70;;;9.10;43.70;;;;;;5054894;28;20013;-79
2021/04/08 10:18:33;;;;;;;13.57;4.47;;;9.10;44.90;;;;;;5054526;28;20021;-79
2021/04/08 10:21:02;;;;;;;12.30;4.55;;;9.20;48.00;;;;;;5054759;28;20029;-80
2021/04/08 10:23:40;;;;;;;13.73;5.38;;;9.20;48.30;;;;;;5052474;28;20040;-79
2021/04/08 10:26:21;;;;;;;20.10;5.38;;;9.20;42.90;;;;;;5054314;28;20021;-80
2021/04/08 10:28:49;;;;;;;14.40;6.22;;;9.00;44.80;;;;;;5053045;28;20111;-79
2021/04/08 10:31:29;;;;;;;16.13;5.18;;;9.00;46.50;;;;;;5053256;28;20021;-79
2021/04/08 10:34:06;;;;;;;9.38;4.80;;;9.00;45.30;;;;;;5053727;28;20017;-79
2021/04/08 10:36:43;;;;;;;13.38;6.03;;;9.00;46.10;;;;;;5053247;28;20098;-78
2021/04/08 10:39:19;;;;;;;11.40;4.55;;;9.00;44.50;;;;;;5054058;28;20031;-79
2021/04/08 10:41:59;;;;;;;10.02;4.95;;;9.00;49.70;;;;;;5054144;28;20024;-80
2021/04/08 10:44:38;;;;;;;9.07;5.30;;;9.00;45.10;;;;;;5053218;28;20094;-79
2021/04/08 10:47:10;;;;;;;9.20;4.75;;;8.90;44.50;;;;;;5053208;28;20290;-80
2021/04/08 10:49:43;;;;;;;14.82;5.85;;;8.90;46.70;;;;;;5052268;28;20020;-80
2021/04/08 10:52:11;;;;;;;13.20;5.22;;;8.90;47.30;;;;;;5054758;28;20446;-80
2021/04/08 10:54:43;;;;;;;8.88;5.13;;;8.80;47.50;;;;;;5054265;28;20036;-80
2021/04/08 10:57:09;;;;;;;45.80;8.82;;;8.80;50.00;;;;;;5053419;28;20492;-78
2021/04/08 10:59:38;;;;;;;59.78;10.52;;;8.80;46.10;;;;;;5055018;28;20025;-78
2021/04/08 11:02:37;;;;;;;44.90;9.32;;;8.70;50.30;;;;;;5055297;28;20071;-81
2021/04/08 11:05:06;;;;;;;17.95;5.95;;;8.80;49.20;;;;;;5053537;28;20466;-79
2021/04/08 11:07:39;;;;;;;137.30;23.20;;;8.90;46.70;;;;;;5053023;28;20053;-79
2021/04/08 11:10:23;;;;;;;41.65;8.57;;;9.00;47.30;;;;;;5054194;28;20051;-79
2021/04/08 11:12:50;;;;;;;46.92;10.85;;;9.00;47.90;;;;;;5053522;28;20175;-79
2021/04/08 11:15:19;;;;;;;56.08;9.93;;;9.00;48.20;;;;;;5054022;28;20024;-78
2021/04/08 11:17:47;;;;;;;11.63;5.18;;;9.00;47.50;;;;;;5053116;28;20035;-79
2021/04/08 11:20:15;;;;;;;17.38;6.30;;;9.00;46.20;;;;;;5053149;28;20108;-80
2021/04/08 11:22:46;;;;;;;12.70;5.68;;;9.00;47.30;;;;;;5052240;28;20017;-80
2021/04/08 11:25:16;;;;;;;15.82;5.68;;;9.00;47.40;;;;;;5052233;28;20027;-80
2021/04/08 11:27:46;;;;;;;17.05;5.85;;;9.10;47.70;;;;;;5054910;28;20017;-80
2021/04/08 11:30:18;;;;;;;13.52;5.60;;;9.20;48.60;;;;;;5053396;28;20017;-80
2021/04/08 11:32:50;;;;;;;20.80;6.63;;;9.20;48.80;;;;;;5053699;28;20104;-81
2021/04/08 11:35:29;;;;;;;11.70;6.25;;;9.40;46.40;;;;;;5053909;28;20285;-80
2021/04/08 11:38:13;;;;;;;14.63;6.38;;;9.40;44.60;;;;;;5053915;28;20098;-81
2021/04/08 11:40:41;;;;;;;9.32;5.45;;;9.40;46.20;;;;;;5052381;28;20032;-80
2021/04/08 11:43:27;;;;;;;8.88;6.10;;;9.40;47.10;;;;;;5052330;28;20009;-80
2021/04/08 11:45:55;;;;;;;11.50;6.13;;;9.50;47.10;;;;;;5053363;28;20418;-80
2021/04/08 11:48:22;;;;;;;14.35;6.05;;;9.70;45.90;;;;;;5052458;28;20388;-81
2021/04/08 11:51:01;;;;;;;10.57;6.20;;;9.70;49.70;;;;;;5052187;28;20025;-80
2021/04/08 11:53:39;;;;;;;11.57;6.10;;;9.70;45.30;;;;;;5052669;28;20031;-80
2021/04/08 11:56:26;;;;;;;12.13;6.63;;;9.50;44.90;;;;;;5054599;28;20485;-82
2021/04/08 11:58:52;;;;;;;12.45;6.20;;;9.30;47.10;;;;;;5053493;28;20021;-79
2021/04/08 12:01:20;;;;;;;12.55;6.22;;;9.20;45.40;;;;;;5052921;28;20116;-80
2021/04/08 12:03:48;;;;;;;12.43;6.70;;;9.20;47.50;;;;;;5052127;28;20462;-80
2021/04/08 12:06:21;;;;;;;17.55;7.35;;;9.20;49.00;;;;;;5052410;28;20100;-80
2021/04/08 12:08:52;;;;;;;15.20;6.72;;;9.10;47.50;;;;;;5051987;28;20055;-82
2021/04/08 12:11:19;;;;;;;12.77;7.13;;;9.10;47.90;;;;;;5052580;28;20013;-79
2021/04/08 12:14:01;;;;;;;11.32;6.15;;;9.10;47.70;;;;;;5052023;28;20471;-78
2021/04/08 12:16:28;;;;;;;13.48;6.30;;;9.00;48.30;;;;;;5053533;28;20032;-80
2021/04/08 12:18:55;;;;;;;14.50;7.38;;;9.00;47.90;;;;;;5051329;28;20370;-80
2021/04/08 12:21:21;;;;;;;14.10;7.10;;;9.00;47.30;;;;;;5050944;28;20449;-81
2021/04/08 12:23:47;;;;;;;12.63;6.47;;;9.10;47.30;;;;;;5050662;28;20369;-81
2021/04/08 12:26:14;;;;;;;11.18;7.57;;;9.10;47.30;;;;;;5051398;28;20468;-80
2021/04/08 12:28:41;;;;;;;13.02;7.63;;;9.20;48.30;;;;;;5051989;28;20074;-81
2021/04/08 12:31:09;;;;;;;10.82;6.45;;;9.10;47.00;;;;;;5052075;28;20029;-82
2021/04/08 12:33:39;;;;;;;14.63;8.07;;;9.10;50.50;;;;;;5052397;28;20461;-81
2021/04/08 12:36:07;;;;;;;;;;;9.20;48.50;;;;;;5052256;28;20373;-80
2021/04/08 12:38:32;;;;;;;21.88;8.00;;;9.20;46.70;;;;;;5051657;28;19972;-81
2021/04/08 12:40:59;;;;;;;25.25;9.23;;;9.20;47.60;;;;;;5051418;28;20041;-82
2021/04/08 12:43:25;;;;;;;13.32;7.95;;;9.20;48.90;;;;;;5052719;28;20029;-81
2021/04/08 12:45:51;;;;;;;20.10;9.20;;;9.20;48.00;;;;;;5051958;28;20025;-81
2021/04/08 12:48:17;;;;;;;15.73;8.75;;;9.20;48.60;;;;;;5051043;28;20471;-82
2021/04/08 12:50:44;;;;;;;16.65;8.60;;;9.10;48.70;;;;;;5050980;28;20459;-83
2021/04/08 12:53:11;;;;;;;14.45;7.82;;;9.10;48.30;;;;;;5050925;28;20067;-82
2021/04/08 12:55:38;;;;;;;14.07;7.63;;;9.10;48.60;;;;;;5050594;28;20029;-82
2021/04/08 12:58:04;;;;;;;13.23;7.90;;;9.20;50.70;;;;;;5051006;28;20388;-82
2021/04/08 13:00:29;;;;;;;16.75;8.57;;;9.20;51.00;;;;;;5050776;28;20059;-83
2021/04/08 13:02:55;;;;;;;12.48;7.28;;;9.20;49.70;;;;;;5051999;28;20049;-82
2021/04/08 13:05:21;;;;;;;15.27;8.65;;;9.20;50.50;;;;;;5050795;28;20021;-81